sensor_id;sensor_type;location;lat;lon;timestamp;P1;durP1;ratioP1;P2;durP2;ratioP2
21352;SDS011;10834;52.268;6.770;2022-12-10T00:02:21;52.40;;;27.43;;
21352;SDS011;10834;52.268;6.770;2022-12-10T00:05:07;56.57;;;28.27;;
21352;SDS011;10834;52.268;6.770;2022-12-10T00:07:53;48.63;;;26.67;;
21352;SDS011;10834;52.268;6.770;2022-12-10T00:10:39;54.07;;;25.80;;
21352;SDS011;10834;52.268;6.770;2022-12-10T00:13:26;56.37;;;26.73;;
21352;SDS011;10834;52.268;6.770;2022-12-10T00:16:13;56.83;;;28.07;;
21352;SDS011;10834;52.268;6.770;2022-12-10T00:19:00;48.03;;;27.00;;
21352;SDS011;10834;52.268;6.770;2022-12-10T00:21:47;48.40;;;26.67;;
21352;SDS011;10834;52.268;6.770;2022-12-10T00:24:33;56.37;;;26.67;;
21352;SDS011;10834;52.268;6.770;2022-12-10T00:27:19;48.00;;;26.30;;
21352;SDS011;10834;52.268;6.770;2022-12-10T00:30:06;51.73;;;25.27;;
21352;SDS011;10834;52.268;6.770;2022-12-10T00:32:52;58.00;;;26.77;;
21352;SDS011;10834;52.268;6.770;2022-12-10T00:35:38;55.87;;;27.03;;
21352;SDS011;10834;52.268;6.770;2022-12-10T00:38:24;55.20;;;25.47;;
21352;SDS011;10834;52.268;6.770;2022-12-10T00:41:11;48.80;;;25.40;;
21352;SDS011;10834;52.268;6.770;2022-12-10T00:43:58;50.67;;;25.37;;
21352;SDS011;10834;52.268;6.770;2022-12-10T00:46:44;48.53;;;24.87;;
21352;SDS011;10834;52.268;6.770;2022-12-10T00:49:30;46.43;;;25.60;;
21352;SDS011;10834;52.268;6.770;2022-12-10T00:52:16;54.27;;;25.73;;
21352;SDS011;10834;52.268;6.770;2022-12-10T00:55:02;50.07;;;25.57;;
21352;SDS011;10834;52.268;6.770;2022-12-10T00:57:49;47.97;;;25.07;;
21352;SDS011;10834;52.268;6.770;2022-12-10T01:00:35;49.87;;;24.00;;
21352;SDS011;10834;52.268;6.770;2022-12-10T01:03:21;45.17;;;23.70;;
21352;SDS011;10834;52.268;6.770;2022-12-10T01:06:10;48.07;;;23.93;;
21352;SDS011;10834;52.268;6.770;2022-12-10T01:09:05;51.40;;;24.43;;
21352;SDS011;10834;52.268;6.770;2022-12-10T01:11:53;53.40;;;26.43;;
21352;SDS011;10834;52.268;6.770;2022-12-10T01:14:40;52.10;;;26.03;;
21352;SDS011;10834;52.268;6.770;2022-12-10T01:17:26;58.87;;;25.07;;
21352;SDS011;10834;52.268;6.770;2022-12-10T01:20:12;55.07;;;25.50;;
21352;SDS011;10834;52.268;6.770;2022-12-10T01:22:58;52.70;;;24.00;;
21352;SDS011;10834;52.268;6.770;2022-12-10T01:25:44;51.83;;;24.57;;
21352;SDS011;10834;52.268;6.770;2022-12-10T01:28:31;50.87;;;24.23;;
21352;SDS011;10834;52.268;6.770;2022-12-10T01:31:20;54.40;;;25.67;;
21352;SDS011;10834;52.268;6.770;2022-12-10T01:34:12;50.27;;;25.33;;
21352;SDS011;10834;52.268;6.770;2022-12-10T01:36:59;50.13;;;24.77;;
21352;SDS011;10834;52.268;6.770;2022-12-10T01:39:45;54.17;;;23.87;;
21352;SDS011;10834;52.268;6.770;2022-12-10T01:42:31;56.93;;;26.27;;
21352;SDS011;10834;52.268;6.770;2022-12-10T01:45:17;58.27;;;25.87;;
21352;SDS011;10834;52.268;6.770;2022-12-10T01:48:04;53.07;;;25.30;;
21352;SDS011;10834;52.268;6.770;2022-12-10T01:50:50;50.27;;;26.00;;
21352;SDS011;10834;52.268;6.770;2022-12-10T01:53:36;53.70;;;26.40;;
21352;SDS011;10834;52.268;6.770;2022-12-10T01:56:23;61.40;;;27.10;;
21352;SDS011;10834;52.268;6.770;2022-12-10T01:59:09;58.77;;;28.03;;
21352;SDS011;10834;52.268;6.770;2022-12-10T02:05:01;58.23;;;26.93;;
21352;SDS011;10834;52.268;6.770;2022-12-10T02:11:13;53.27;;;26.80;;
21352;SDS011;10834;52.268;6.770;2022-12-10T02:14:10;61.33;;;26.23;;
21352;SDS011;10834;52.268;6.770;2022-12-10T02:17:12;58.53;;;26.67;;
21352;SDS011;10834;52.268;6.770;2022-12-10T02:20:04;57.87;;;26.10;;
21352;SDS011;10834;52.268;6.770;2022-12-10T02:23:10;52.90;;;25.37;;
21352;SDS011;10834;52.268;6.770;2022-12-10T02:26:14;62.27;;;27.27;;
21352;SDS011;10834;52.268;6.770;2022-12-10T02:29:13;53.50;;;26.27;;
21352;SDS011;10834;52.268;6.770;2022-12-10T02:32:19;54.83;;;26.50;;
21352;SDS011;10834;52.268;6.770;2022-12-10T02:35:14;55.90;;;27.40;;
21352;SDS011;10834;52.268;6.770;2022-12-10T02:38:15;59.67;;;28.33;;
21352;SDS011;10834;52.268;6.770;2022-12-10T02:41:12;57.27;;;26.20;;
21352;SDS011;10834;52.268;6.770;2022-12-10T02:44:04;57.30;;;28.10;;
21352;SDS011;10834;52.268;6.770;2022-12-10T02:46:55;60.53;;;29.63;;
21352;SDS011;10834;52.268;6.770;2022-12-10T02:49:42;62.80;;;27.87;;
21352;SDS011;10834;52.268;6.770;2022-12-10T02:52:31;63.97;;;28.03;;
21352;SDS011;10834;52.268;6.770;2022-12-10T02:55:17;68.63;;;28.07;;
21352;SDS011;10834;52.268;6.770;2022-12-10T02:58:11;60.03;;;27.70;;
21352;SDS011;10834;52.268;6.770;2022-12-10T03:07:33;61.40;;;27.60;;
21352;SDS011;10834;52.268;6.770;2022-12-10T03:10:45;60.63;;;28.27;;
21352;SDS011;10834;52.268;6.770;2022-12-10T03:13:49;57.83;;;25.83;;
21352;SDS011;10834;52.268;6.770;2022-12-10T03:16:59;55.73;;;26.20;;
21352;SDS011;10834;52.268;6.770;2022-12-10T03:19:47;51.30;;;25.30;;
21352;SDS011;10834;52.268;6.770;2022-12-10T03:22:36;59.03;;;27.87;;
21352;SDS011;10834;52.268;6.770;2022-12-10T03:25:26;60.17;;;27.63;;
21352;SDS011;10834;52.268;6.770;2022-12-10T03:28:15;63.40;;;27.23;;
21352;SDS011;10834;52.268;6.770;2022-12-10T03:31:04;51.20;;;26.80;;
21352;SDS011;10834;52.268;6.770;2022-12-10T03:33:54;66.13;;;28.43;;
21352;SDS011;10834;52.268;6.770;2022-12-10T03:36:40;57.00;;;27.40;;
21352;SDS011;10834;52.268;6.770;2022-12-10T03:39:27;63.13;;;27.80;;
21352;SDS011;10834;52.268;6.770;2022-12-10T03:42:14;62.90;;;28.47;;
21352;SDS011;10834;52.268;6.770;2022-12-10T03:45:00;59.50;;;27.80;;
21352;SDS011;10834;52.268;6.770;2022-12-10T03:47:47;60.40;;;26.57;;
21352;SDS011;10834;52.268;6.770;2022-12-10T03:50:34;59.47;;;27.97;;
21352;SDS011;10834;52.268;6.770;2022-12-10T03:53:20;67.47;;;28.43;;
21352;SDS011;10834;52.268;6.770;2022-12-10T03:56:06;56.67;;;26.87;;
21352;SDS011;10834;52.268;6.770;2022-12-10T03:58:53;53.73;;;27.83;;
21352;SDS011;10834;52.268;6.770;2022-12-10T04:01:39;57.03;;;27.07;;
21352;SDS011;10834;52.268;6.770;2022-12-10T04:04:25;65.60;;;27.93;;
21352;SDS011;10834;52.268;6.770;2022-12-10T04:07:12;60.53;;;27.73;;
21352;SDS011;10834;52.268;6.770;2022-12-10T04:09:58;58.47;;;26.90;;
21352;SDS011;10834;52.268;6.770;2022-12-10T04:12:44;58.13;;;26.63;;
21352;SDS011;10834;52.268;6.770;2022-12-10T04:15:50;64.20;;;27.60;;
21352;SDS011;10834;52.268;6.770;2022-12-10T04:18:59;61.53;;;27.20;;
21352;SDS011;10834;52.268;6.770;2022-12-10T04:21:47;62.30;;;26.73;;
21352;SDS011;10834;52.268;6.770;2022-12-10T04:24:52;62.07;;;27.77;;
21352;SDS011;10834;52.268;6.770;2022-12-10T04:27:57;61.07;;;27.77;;
21352;SDS011;10834;52.268;6.770;2022-12-10T04:30:43;67.40;;;31.53;;
21352;SDS011;10834;52.268;6.770;2022-12-10T04:33:29;71.07;;;28.53;;
21352;SDS011;10834;52.268;6.770;2022-12-10T04:36:15;65.83;;;29.03;;
21352;SDS011;10834;52.268;6.770;2022-12-10T04:39:01;67.43;;;28.87;;
21352;SDS011;10834;52.268;6.770;2022-12-10T04:41:48;64.83;;;28.90;;
21352;SDS011;10834;52.268;6.770;2022-12-10T04:44:35;66.43;;;28.33;;
21352;SDS011;10834;52.268;6.770;2022-12-10T04:47:22;68.83;;;29.30;;
21352;SDS011;10834;52.268;6.770;2022-12-10T04:50:08;64.93;;;28.97;;
21352;SDS011;10834;52.268;6.770;2022-12-10T04:52:54;63.63;;;27.20;;
21352;SDS011;10834;52.268;6.770;2022-12-10T04:55:40;64.73;;;29.50;;
21352;SDS011;10834;52.268;6.770;2022-12-10T04:58:26;59.20;;;29.00;;
21352;SDS011;10834;52.268;6.770;2022-12-10T05:01:16;67.20;;;27.17;;
21352;SDS011;10834;52.268;6.770;2022-12-10T05:04:04;63.23;;;29.90;;
21352;SDS011;10834;52.268;6.770;2022-12-10T05:06:51;65.10;;;29.10;;
21352;SDS011;10834;52.268;6.770;2022-12-10T05:09:38;63.97;;;29.20;;
21352;SDS011;10834;52.268;6.770;2022-12-10T05:12:24;64.83;;;29.07;;
21352;SDS011;10834;52.268;6.770;2022-12-10T05:15:10;70.90;;;30.23;;
21352;SDS011;10834;52.268;6.770;2022-12-10T05:17:56;66.07;;;29.70;;
21352;SDS011;10834;52.268;6.770;2022-12-10T05:20:42;72.27;;;30.50;;
21352;SDS011;10834;52.268;6.770;2022-12-10T05:23:28;61.40;;;27.40;;
21352;SDS011;10834;52.268;6.770;2022-12-10T05:26:21;69.87;;;31.37;;
21352;SDS011;10834;52.268;6.770;2022-12-10T05:29:09;64.63;;;29.73;;
21352;SDS011;10834;52.268;6.770;2022-12-10T05:31:57;79.87;;;30.33;;
21352;SDS011;10834;52.268;6.770;2022-12-10T05:34:43;64.47;;;30.60;;
21352;SDS011;10834;52.268;6.770;2022-12-10T05:37:29;70.63;;;30.83;;
21352;SDS011;10834;52.268;6.770;2022-12-10T05:40:15;68.57;;;29.90;;
21352;SDS011;10834;52.268;6.770;2022-12-10T05:43:02;67.40;;;29.37;;
21352;SDS011;10834;52.268;6.770;2022-12-10T05:45:48;70.10;;;30.23;;
21352;SDS011;10834;52.268;6.770;2022-12-10T05:48:35;75.43;;;28.70;;
21352;SDS011;10834;52.268;6.770;2022-12-10T05:51:22;74.40;;;29.60;;
21352;SDS011;10834;52.268;6.770;2022-12-10T05:54:10;63.70;;;29.27;;
21352;SDS011;10834;52.268;6.770;2022-12-10T05:56:56;70.30;;;30.13;;
21352;SDS011;10834;52.268;6.770;2022-12-10T05:59:42;67.37;;;27.67;;
21352;SDS011;10834;52.268;6.770;2022-12-10T06:02:28;62.03;;;28.47;;
21352;SDS011;10834;52.268;6.770;2022-12-10T06:05:14;64.93;;;29.30;;
21352;SDS011;10834;52.268;6.770;2022-12-10T06:08:01;70.13;;;29.40;;
21352;SDS011;10834;52.268;6.770;2022-12-10T06:10:47;68.70;;;29.90;;
21352;SDS011;10834;52.268;6.770;2022-12-10T06:13:33;71.03;;;29.90;;
21352;SDS011;10834;52.268;6.770;2022-12-10T06:16:20;64.53;;;28.77;;
21352;SDS011;10834;52.268;6.770;2022-12-10T06:19:06;74.27;;;30.20;;
21352;SDS011;10834;52.268;6.770;2022-12-10T06:21:52;68.40;;;29.10;;
21352;SDS011;10834;52.268;6.770;2022-12-10T06:24:38;63.07;;;29.93;;
21352;SDS011;10834;52.268;6.770;2022-12-10T06:27:24;81.40;;;31.77;;
21352;SDS011;10834;52.268;6.770;2022-12-10T06:30:10;69.53;;;30.37;;
21352;SDS011;10834;52.268;6.770;2022-12-10T06:32:57;70.10;;;28.37;;
21352;SDS011;10834;52.268;6.770;2022-12-10T06:35:43;65.57;;;28.60;;
21352;SDS011;10834;52.268;6.770;2022-12-10T06:38:29;66.20;;;29.57;;
21352;SDS011;10834;52.268;6.770;2022-12-10T06:41:16;64.33;;;28.10;;
21352;SDS011;10834;52.268;6.770;2022-12-10T06:44:07;68.40;;;28.47;;
21352;SDS011;10834;52.268;6.770;2022-12-10T06:46:53;59.47;;;26.67;;
21352;SDS011;10834;52.268;6.770;2022-12-10T06:49:40;67.00;;;29.30;;
21352;SDS011;10834;52.268;6.770;2022-12-10T06:52:26;67.47;;;29.97;;
21352;SDS011;10834;52.268;6.770;2022-12-10T06:55:12;62.30;;;28.83;;
21352;SDS011;10834;52.268;6.770;2022-12-10T06:57:58;71.93;;;28.27;;
21352;SDS011;10834;52.268;6.770;2022-12-10T07:00:44;66.23;;;27.90;;
21352;SDS011;10834;52.268;6.770;2022-12-10T07:03:30;68.40;;;29.20;;
21352;SDS011;10834;52.268;6.770;2022-12-10T07:06:16;71.50;;;30.00;;
21352;SDS011;10834;52.268;6.770;2022-12-10T07:09:03;64.87;;;27.90;;
21352;SDS011;10834;52.268;6.770;2022-12-10T07:11:49;64.13;;;28.10;;
21352;SDS011;10834;52.268;6.770;2022-12-10T07:14:35;56.93;;;25.27;;
21352;SDS011;10834;52.268;6.770;2022-12-10T07:17:21;61.90;;;28.33;;
21352;SDS011;10834;52.268;6.770;2022-12-10T07:20:07;68.10;;;27.40;;
21352;SDS011;10834;52.268;6.770;2022-12-10T07:22:54;64.07;;;28.20;;
21352;SDS011;10834;52.268;6.770;2022-12-10T07:25:40;63.70;;;27.17;;
21352;SDS011;10834;52.268;6.770;2022-12-10T07:28:26;70.37;;;29.20;;
21352;SDS011;10834;52.268;6.770;2022-12-10T07:31:12;57.00;;;26.07;;
21352;SDS011;10834;52.268;6.770;2022-12-10T07:33:59;66.10;;;26.77;;
21352;SDS011;10834;52.268;6.770;2022-12-10T07:36:45;72.27;;;27.97;;
21352;SDS011;10834;52.268;6.770;2022-12-10T07:39:31;64.40;;;27.83;;
21352;SDS011;10834;52.268;6.770;2022-12-10T07:42:17;65.30;;;28.00;;
21352;SDS011;10834;52.268;6.770;2022-12-10T07:45:03;66.70;;;29.40;;
21352;SDS011;10834;52.268;6.770;2022-12-10T07:47:50;66.53;;;29.37;;
21352;SDS011;10834;52.268;6.770;2022-12-10T07:50:36;62.63;;;29.37;;
21352;SDS011;10834;52.268;6.770;2022-12-10T07:53:22;69.60;;;28.80;;
21352;SDS011;10834;52.268;6.770;2022-12-10T07:56:09;60.53;;;27.77;;
21352;SDS011;10834;52.268;6.770;2022-12-10T07:58:56;66.17;;;29.07;;
21352;SDS011;10834;52.268;6.770;2022-12-10T08:01:42;63.57;;;29.83;;
21352;SDS011;10834;52.268;6.770;2022-12-10T08:04:28;64.77;;;28.53;;
21352;SDS011;10834;52.268;6.770;2022-12-10T08:07:15;70.27;;;30.77;;
21352;SDS011;10834;52.268;6.770;2022-12-10T08:10:01;66.07;;;28.17;;
21352;SDS011;10834;52.268;6.770;2022-12-10T08:12:48;68.57;;;28.00;;
21352;SDS011;10834;52.268;6.770;2022-12-10T08:15:34;65.87;;;29.07;;
21352;SDS011;10834;52.268;6.770;2022-12-10T08:18:20;62.97;;;28.53;;
21352;SDS011;10834;52.268;6.770;2022-12-10T08:21:14;68.97;;;29.13;;
21352;SDS011;10834;52.268;6.770;2022-12-10T08:24:01;65.67;;;28.40;;
21352;SDS011;10834;52.268;6.770;2022-12-10T08:26:47;68.07;;;29.93;;
21352;SDS011;10834;52.268;6.770;2022-12-10T08:29:33;66.20;;;31.30;;
21352;SDS011;10834;52.268;6.770;2022-12-10T08:32:20;67.57;;;30.37;;
21352;SDS011;10834;52.268;6.770;2022-12-10T08:35:06;63.47;;;29.57;;
21352;SDS011;10834;52.268;6.770;2022-12-10T08:37:53;61.60;;;28.90;;
21352;SDS011;10834;52.268;6.770;2022-12-10T08:40:42;66.30;;;28.07;;
21352;SDS011;10834;52.268;6.770;2022-12-10T08:43:28;67.50;;;29.97;;
21352;SDS011;10834;52.268;6.770;2022-12-10T08:46:14;62.30;;;29.33;;
21352;SDS011;10834;52.268;6.770;2022-12-10T08:49:01;70.77;;;30.20;;
21352;SDS011;10834;52.268;6.770;2022-12-10T08:51:48;66.30;;;30.13;;
21352;SDS011;10834;52.268;6.770;2022-12-10T08:54:34;71.50;;;29.67;;
21352;SDS011;10834;52.268;6.770;2022-12-10T08:57:20;64.00;;;29.47;;
21352;SDS011;10834;52.268;6.770;2022-12-10T09:00:06;69.47;;;29.83;;
21352;SDS011;10834;52.268;6.770;2022-12-10T09:02:53;62.73;;;29.83;;
21352;SDS011;10834;52.268;6.770;2022-12-10T09:05:39;67.10;;;31.03;;
21352;SDS011;10834;52.268;6.770;2022-12-10T09:08:25;67.30;;;28.93;;
21352;SDS011;10834;52.268;6.770;2022-12-10T09:11:13;66.00;;;30.27;;
21352;SDS011;10834;52.268;6.770;2022-12-10T09:14:07;70.30;;;28.97;;
21352;SDS011;10834;52.268;6.770;2022-12-10T09:16:53;69.70;;;29.93;;
21352;SDS011;10834;52.268;6.770;2022-12-10T09:19:40;65.17;;;31.27;;
21352;SDS011;10834;52.268;6.770;2022-12-10T09:22:26;67.03;;;31.90;;
21352;SDS011;10834;52.268;6.770;2022-12-10T09:25:13;69.20;;;30.67;;
21352;SDS011;10834;52.268;6.770;2022-12-10T09:28:00;62.03;;;29.10;;
21352;SDS011;10834;52.268;6.770;2022-12-10T09:30:54;71.87;;;32.87;;
21352;SDS011;10834;52.268;6.770;2022-12-10T09:33:42;65.03;;;31.07;;
21352;SDS011;10834;52.268;6.770;2022-12-10T09:36:28;71.53;;;31.87;;
21352;SDS011;10834;52.268;6.770;2022-12-10T09:39:14;74.77;;;33.23;;
21352;SDS011;10834;52.268;6.770;2022-12-10T09:50:52;71.40;;;31.27;;
21352;SDS011;10834;52.268;6.770;2022-12-10T09:53:39;70.03;;;31.20;;
21352;SDS011;10834;52.268;6.770;2022-12-10T09:56:36;72.83;;;31.13;;
21352;SDS011;10834;52.268;6.770;2022-12-10T09:59:32;67.63;;;30.30;;
21352;SDS011;10834;52.268;6.770;2022-12-10T10:02:22;61.37;;;30.30;;
21352;SDS011;10834;52.268;6.770;2022-12-10T10:05:12;61.70;;;26.83;;
21352;SDS011;10834;52.268;6.770;2022-12-10T10:08:26;62.57;;;27.97;;
21352;SDS011;10834;52.268;6.770;2022-12-10T10:11:24;55.43;;;25.73;;
21352;SDS011;10834;52.268;6.770;2022-12-10T10:14:26;51.70;;;25.00;;
21352;SDS011;10834;52.268;6.770;2022-12-10T10:20:13;50.17;;;24.77;;
21352;SDS011;10834;52.268;6.770;2022-12-10T10:23:00;45.67;;;22.63;;
21352;SDS011;10834;52.268;6.770;2022-12-10T10:25:48;51.77;;;23.30;;
21352;SDS011;10834;52.268;6.770;2022-12-10T10:28:36;48.77;;;23.37;;
21352;SDS011;10834;52.268;6.770;2022-12-10T10:31:26;54.83;;;25.83;;
21352;SDS011;10834;52.268;6.770;2022-12-10T10:34:18;53.43;;;24.33;;
21352;SDS011;10834;52.268;6.770;2022-12-10T10:37:11;60.10;;;24.70;;
21352;SDS011;10834;52.268;6.770;2022-12-10T10:40:02;50.93;;;23.57;;
21352;SDS011;10834;52.268;6.770;2022-12-10T10:42:51;60.93;;;26.67;;
21352;SDS011;10834;52.268;6.770;2022-12-10T10:45:40;52.00;;;23.73;;
21352;SDS011;10834;52.268;6.770;2022-12-10T10:48:28;57.93;;;25.37;;
21352;SDS011;10834;52.268;6.770;2022-12-10T10:51:19;54.23;;;25.13;;
21352;SDS011;10834;52.268;6.770;2022-12-10T10:54:08;53.30;;;24.80;;
21352;SDS011;10834;52.268;6.770;2022-12-10T10:56:54;56.73;;;26.03;;
21352;SDS011;10834;52.268;6.770;2022-12-10T10:59:40;62.50;;;26.50;;
21352;SDS011;10834;52.268;6.770;2022-12-10T11:02:29;61.13;;;27.03;;
21352;SDS011;10834;52.268;6.770;2022-12-10T11:08:16;62.57;;;25.20;;
21352;SDS011;10834;52.268;6.770;2022-12-10T11:11:10;62.53;;;30.03;;
21352;SDS011;10834;52.268;6.770;2022-12-10T11:23:10;62.73;;;29.57;;
21352;SDS011;10834;52.268;6.770;2022-12-10T11:36:06;70.80;;;28.97;;
21352;SDS011;10834;52.268;6.770;2022-12-10T11:39:30;73.70;;;31.70;;
21352;SDS011;10834;52.268;6.770;2022-12-10T11:48:45;75.70;;;30.03;;
21352;SDS011;10834;52.268;6.770;2022-12-10T12:07:42;79.27;;;30.40;;
21352;SDS011;10834;52.268;6.770;2022-12-10T12:13:34;76.67;;;28.53;;
21352;SDS011;10834;52.268;6.770;2022-12-10T12:16:25;84.53;;;30.60;;
21352;SDS011;10834;52.268;6.770;2022-12-10T12:19:17;77.90;;;29.47;;
21352;SDS011;10834;52.268;6.770;2022-12-10T12:22:37;77.10;;;29.30;;
21352;SDS011;10834;52.268;6.770;2022-12-10T12:25:27;72.37;;;28.10;;
21352;SDS011;10834;52.268;6.770;2022-12-10T12:31:20;68.80;;;27.53;;
21352;SDS011;10834;52.268;6.770;2022-12-10T12:37:12;63.80;;;26.90;;
21352;SDS011;10834;52.268;6.770;2022-12-10T12:40:13;71.23;;;28.57;;
21352;SDS011;10834;52.268;6.770;2022-12-10T12:43:16;74.73;;;28.47;;
21352;SDS011;10834;52.268;6.770;2022-12-10T12:46:13;64.57;;;25.70;;
21352;SDS011;10834;52.268;6.770;2022-12-10T12:49:10;70.50;;;26.80;;
21352;SDS011;10834;52.268;6.770;2022-12-10T12:55:36;71.93;;;27.73;;
21352;SDS011;10834;52.268;6.770;2022-12-10T12:58:38;75.47;;;28.40;;
21352;SDS011;10834;52.268;6.770;2022-12-10T13:01:43;77.93;;;28.83;;
21352;SDS011;10834;52.268;6.770;2022-12-10T13:04:36;73.17;;;26.70;;
21352;SDS011;10834;52.268;6.770;2022-12-10T13:10:16;64.83;;;26.83;;
21352;SDS011;10834;52.268;6.770;2022-12-10T13:13:25;73.00;;;27.07;;
21352;SDS011;10834;52.268;6.770;2022-12-10T13:19:26;65.87;;;26.60;;
21352;SDS011;10834;52.268;6.770;2022-12-10T13:28:38;82.73;;;33.83;;
21352;SDS011;10834;52.268;6.770;2022-12-10T13:31:35;74.70;;;28.87;;
21352;SDS011;10834;52.268;6.770;2022-12-10T13:34:29;67.30;;;27.17;;
21352;SDS011;10834;52.268;6.770;2022-12-10T13:37:18;79.70;;;28.97;;
21352;SDS011;10834;52.268;6.770;2022-12-10T13:40:21;82.43;;;29.60;;
21352;SDS011;10834;52.268;6.770;2022-12-10T13:46:32;65.90;;;26.03;;
21352;SDS011;10834;52.268;6.770;2022-12-10T13:49:24;67.03;;;27.67;;
21352;SDS011;10834;52.268;6.770;2022-12-10T13:52:14;67.13;;;24.37;;
21352;SDS011;10834;52.268;6.770;2022-12-10T14:01:52;80.60;;;29.57;;
21352;SDS011;10834;52.268;6.770;2022-12-10T14:08:05;72.53;;;28.10;;
21352;SDS011;10834;52.268;6.770;2022-12-10T14:10:58;70.83;;;27.87;;
21352;SDS011;10834;52.268;6.770;2022-12-10T14:13:46;74.43;;;27.97;;
21352;SDS011;10834;52.268;6.770;2022-12-10T14:16:37;71.77;;;28.10;;
21352;SDS011;10834;52.268;6.770;2022-12-10T14:19:25;68.60;;;29.23;;
21352;SDS011;10834;52.268;6.770;2022-12-10T14:22:15;95.10;;;44.83;;
21352;SDS011;10834;52.268;6.770;2022-12-10T14:25:05;73.20;;;34.97;;
21352;SDS011;10834;52.268;6.770;2022-12-10T14:28:00;77.97;;;35.73;;
21352;SDS011;10834;52.268;6.770;2022-12-10T14:30:48;66.67;;;29.43;;
21352;SDS011;10834;52.268;6.770;2022-12-10T14:33:35;71.90;;;28.60;;
21352;SDS011;10834;52.268;6.770;2022-12-10T14:36:31;72.13;;;29.63;;
21352;SDS011;10834;52.268;6.770;2022-12-10T14:39:30;67.30;;;26.83;;
21352;SDS011;10834;52.268;6.770;2022-12-10T14:42:19;71.63;;;29.73;;
21352;SDS011;10834;52.268;6.770;2022-12-10T14:45:05;71.27;;;29.63;;
21352;SDS011;10834;52.268;6.770;2022-12-10T14:47:53;68.70;;;29.37;;
21352;SDS011;10834;52.268;6.770;2022-12-10T14:50:39;73.33;;;29.80;;
21352;SDS011;10834;52.268;6.770;2022-12-10T14:53:26;68.43;;;29.33;;
21352;SDS011;10834;52.268;6.770;2022-12-10T14:56:21;71.27;;;29.57;;
21352;SDS011;10834;52.268;6.770;2022-12-10T14:59:13;83.20;;;30.90;;
21352;SDS011;10834;52.268;6.770;2022-12-10T15:02:05;66.37;;;27.27;;
21352;SDS011;10834;52.268;6.770;2022-12-10T15:05:01;69.27;;;28.87;;
21352;SDS011;10834;52.268;6.770;2022-12-10T15:07:55;68.00;;;27.80;;
21352;SDS011;10834;52.268;6.770;2022-12-10T15:10:44;66.67;;;26.53;;
21352;SDS011;10834;52.268;6.770;2022-12-10T15:13:39;76.47;;;27.97;;
21352;SDS011;10834;52.268;6.770;2022-12-10T15:16:28;73.87;;;28.53;;
21352;SDS011;10834;52.268;6.770;2022-12-10T15:19:18;70.73;;;28.03;;
21352;SDS011;10834;52.268;6.770;2022-12-10T15:22:19;74.30;;;28.43;;
21352;SDS011;10834;52.268;6.770;2022-12-10T15:25:21;66.03;;;27.63;;
21352;SDS011;10834;52.268;6.770;2022-12-10T15:28:30;73.10;;;26.70;;
21352;SDS011;10834;52.268;6.770;2022-12-10T15:31:22;76.63;;;30.07;;
21352;SDS011;10834;52.268;6.770;2022-12-10T15:34:10;70.73;;;28.33;;
21352;SDS011;10834;52.268;6.770;2022-12-10T15:37:02;68.47;;;27.80;;
21352;SDS011;10834;52.268;6.770;2022-12-10T15:39:51;69.77;;;28.13;;
21352;SDS011;10834;52.268;6.770;2022-12-10T15:42:40;70.57;;;28.20;;
21352;SDS011;10834;52.268;6.770;2022-12-10T15:45:37;69.07;;;26.13;;
21352;SDS011;10834;52.268;6.770;2022-12-10T15:48:29;67.50;;;27.97;;
21352;SDS011;10834;52.268;6.770;2022-12-10T15:51:15;71.27;;;28.40;;
21352;SDS011;10834;52.268;6.770;2022-12-10T15:54:11;71.50;;;28.63;;
21352;SDS011;10834;52.268;6.770;2022-12-10T15:57:10;71.60;;;26.87;;
21352;SDS011;10834;52.268;6.770;2022-12-10T16:00:02;63.07;;;27.53;;
21352;SDS011;10834;52.268;6.770;2022-12-10T16:02:58;66.90;;;28.17;;
21352;SDS011;10834;52.268;6.770;2022-12-10T16:05:49;65.40;;;26.90;;
21352;SDS011;10834;52.268;6.770;2022-12-10T16:08:35;76.30;;;28.53;;
21352;SDS011;10834;52.268;6.770;2022-12-10T16:11:21;67.87;;;27.57;;
21352;SDS011;10834;52.268;6.770;2022-12-10T16:14:08;71.47;;;29.80;;
21352;SDS011;10834;52.268;6.770;2022-12-10T16:16:55;66.17;;;26.97;;
21352;SDS011;10834;52.268;6.770;2022-12-10T16:19:41;65.37;;;26.70;;
21352;SDS011;10834;52.268;6.770;2022-12-10T16:22:27;76.37;;;29.33;;
21352;SDS011;10834;52.268;6.770;2022-12-10T16:25:13;77.10;;;28.30;;
21352;SDS011;10834;52.268;6.770;2022-12-10T16:28:00;73.50;;;27.40;;
21352;SDS011;10834;52.268;6.770;2022-12-10T16:30:48;75.20;;;27.30;;
21352;SDS011;10834;52.268;6.770;2022-12-10T16:33:36;86.37;;;30.17;;
21352;SDS011;10834;52.268;6.770;2022-12-10T16:36:22;79.17;;;30.33;;
21352;SDS011;10834;52.268;6.770;2022-12-10T16:39:08;74.33;;;29.20;;
21352;SDS011;10834;52.268;6.770;2022-12-10T16:41:54;67.57;;;28.27;;
21352;SDS011;10834;52.268;6.770;2022-12-10T16:44:40;72.37;;;28.53;;
21352;SDS011;10834;52.268;6.770;2022-12-10T16:47:26;69.30;;;26.47;;
21352;SDS011;10834;52.268;6.770;2022-12-10T16:50:13;78.37;;;32.43;;
21352;SDS011;10834;52.268;6.770;2022-12-10T16:53:03;73.67;;;31.97;;
21352;SDS011;10834;52.268;6.770;2022-12-10T16:55:58;83.77;;;32.57;;
21352;SDS011;10834;52.268;6.770;2022-12-10T16:58:44;73.03;;;30.77;;
21352;SDS011;10834;52.268;6.770;2022-12-10T17:01:30;69.80;;;26.10;;
21352;SDS011;10834;52.268;6.770;2022-12-10T17:04:17;62.80;;;25.47;;
21352;SDS011;10834;52.268;6.770;2022-12-10T17:07:03;71.03;;;27.50;;
21352;SDS011;10834;52.268;6.770;2022-12-10T17:09:49;66.13;;;25.80;;
21352;SDS011;10834;52.268;6.770;2022-12-10T17:12:35;73.17;;;27.87;;
21352;SDS011;10834;52.268;6.770;2022-12-10T17:15:21;85.83;;;30.53;;
21352;SDS011;10834;52.268;6.770;2022-12-10T17:18:17;76.77;;;32.83;;
21352;SDS011;10834;52.268;6.770;2022-12-10T17:21:04;72.67;;;27.17;;
21352;SDS011;10834;52.268;6.770;2022-12-10T17:23:50;75.20;;;26.83;;
21352;SDS011;10834;52.268;6.770;2022-12-10T17:26:37;74.60;;;29.60;;
21352;SDS011;10834;52.268;6.770;2022-12-10T17:29:31;79.27;;;29.27;;
21352;SDS011;10834;52.268;6.770;2022-12-10T17:32:21;70.23;;;25.53;;
21352;SDS011;10834;52.268;6.770;2022-12-10T17:35:08;73.17;;;27.63;;
21352;SDS011;10834;52.268;6.770;2022-12-10T17:37:55;78.50;;;28.17;;
21352;SDS011;10834;52.268;6.770;2022-12-10T17:40:41;73.27;;;27.40;;
21352;SDS011;10834;52.268;6.770;2022-12-10T17:43:27;72.37;;;28.97;;
21352;SDS011;10834;52.268;6.770;2022-12-10T17:46:13;78.83;;;28.83;;
21352;SDS011;10834;52.268;6.770;2022-12-10T17:49:01;70.00;;;33.27;;
21352;SDS011;10834;52.268;6.770;2022-12-10T17:51:47;72.80;;;30.87;;
21352;SDS011;10834;52.268;6.770;2022-12-10T17:54:33;59.17;;;27.73;;
21352;SDS011;10834;52.268;6.770;2022-12-10T17:57:22;62.07;;;24.43;;
21352;SDS011;10834;52.268;6.770;2022-12-10T18:00:11;64.00;;;25.67;;
21352;SDS011;10834;52.268;6.770;2022-12-10T18:03:00;73.77;;;25.93;;
21352;SDS011;10834;52.268;6.770;2022-12-10T18:05:46;66.03;;;26.03;;
21352;SDS011;10834;52.268;6.770;2022-12-10T18:08:32;69.53;;;26.30;;
21352;SDS011;10834;52.268;6.770;2022-12-10T18:11:20;66.63;;;25.40;;
21352;SDS011;10834;52.268;6.770;2022-12-10T18:14:08;67.77;;;26.13;;
21352;SDS011;10834;52.268;6.770;2022-12-10T18:16:54;68.20;;;27.37;;
21352;SDS011;10834;52.268;6.770;2022-12-10T18:19:40;67.33;;;26.40;;